2-й Городок

Карта отелей и гостиниц, располагающихся рядом с аэропортом 2-й Городок :

2-й Городок Курганская область 56° 2' 17.9988" N, 63° 56' 30.0012" E
2-й Городок Курганская область 56° 2' 17.9988" N, 63° 56' 30.0012" E
Код аэродрома ИКАО
H498
Код аэродрома RU
Х498
Координаты
N56.03833° E063.94167°
Превышение над уровнем моря
110
Основная полоса
Курс магнитный
Длина основной ВПП
50
Ширина основной ВПП
50
Покрытие основной ВПП
Твёрдое (бетон)
Освещение ВПП
Нет
Тип: 
Вертодром
Класс аэродрома: 
Принадлежность: 
МО
Статус: 
Недействующий
Сайт: 
E-mail аэродрома: 
Страна: 
Россия
Регион: 
Курганская область
Город: 
Дополнительная информация: 

Найти трансфер

С помощью этой формы Вы можете найти трансфер из аэропорта 2-й Городок в город, аэропорт или вокзал:

Карта места

Javascript is required to view this map.

Погода в аэропортах:

Авиационная погода в аэропорту Алыкель

Регион: 
Погода METAR: 
UOOO 130900Z 26008MPS 1200 1100NE R19/1300D SN BLSN OVC007 M03/M04 Q0995 R19/650542 NOSIG RMK QFE730/0974
Время наблюдения
2021-04-13T09:00:00Z
Температура C
-3.0
Точка росы
-4.0
Направление ветра
260
Скорость ветра (узлы)
16
Метео видимость
0.75
Явления погоды
BLSN SN
Условия полета
LIFR
Аэропорт подробнее: 

Авиационная погода в Нальчике

Регион: 
Погода METAR: 
URMN 130900Z 09002MPS 9999 -SHRA BKN008 BKN017CB 09/07 Q1021 R24/210155 NOSIG RMK MT OBSC QFE729
Время наблюдения
2021-04-13T09:00:00Z
Температура C
9.0
Точка росы
7.0
Направление ветра
90
Скорость ветра (узлы)
4
Метео видимость
6.21
Явления погоды
-SHRA
Условия полета
IFR
Аэропорт подробнее: 

Авиационная погода в Куусамо

Регион: 
Погода METAR: 
EFKS 130920Z AUTO 13004KT 0450 R12/0650N FG VV002 01/01 Q1011
Время наблюдения
2021-04-13T09:20:00Z
Температура C
1.0
Точка росы
1.0
Направление ветра
130
Скорость ветра (узлы)
4
Метео видимость
0.28
Явления погоды
FG
Условия полета
LIFR

Авиационная погода в Полярном

Регион: 
Погода METAR: 
UERP 130900Z 18003G08MPS 2300 -SHSN BKN014CB OVC100 M02/M04 Q0995 R17/492040 NOSIG RMK QFE702
Время наблюдения
2021-04-13T09:00:00Z
Температура C
-2.0
Точка росы
-4.0
Направление ветра
180
Скорость ветра (узлы)
6
Метео видимость
1.43
Явления погоды
-SHSN
Условия полета
IFR
Аэропорт подробнее: